sensor_id;sensor_type;location;lat;lon;timestamp;pressure;altitude;pressure_sealevel;temperature;humidity
76815;BME280;65768;49.906;19.384;2023-03-01T00:01:41;99521.29;;;-4.44;87.72
76815;BME280;65768;49.906;19.384;2023-03-01T00:04:10;99522.73;;;-4.44;86.41
76815;BME280;65768;49.906;19.384;2023-03-01T00:06:38;99522.96;;;-4.51;86.97
76815;BME280;65768;49.906;19.384;2023-03-01T00:09:06;99522.23;;;-4.64;87.90
76815;BME280;65768;49.906;19.384;2023-03-01T00:11:34;99525.67;;;-4.68;88.49
76815;BME280;65768;49.906;19.384;2023-03-01T00:14:03;99522.80;;;-4.70;89.39
76815;BME280;65768;49.906;19.384;2023-03-01T00:16:36;99521.11;;;-4.76;89.70
76815;BME280;65768;49.906;19.384;2023-03-01T00:19:11;99524.45;;;-4.77;90.21
76815;BME280;65768;49.906;19.384;2023-03-01T00:21:39;99525.46;;;-4.77;89.99
76815;BME280;65768;49.906;19.384;2023-03-01T00:24:08;99524.23;;;-4.72;89.21
76815;BME280;65768;49.906;19.384;2023-03-01T00:26:36;99527.44;;;-4.80;88.81
76815;BME280;65768;49.906;19.384;2023-03-01T00:29:05;99523.65;;;-4.83;89.08
76815;BME280;65768;49.906;19.384;2023-03-01T00:31:36;99528.80;;;-4.88;88.93
76815;BME280;65768;49.906;19.384;2023-03-01T00:34:05;99526.63;;;-4.84;89.67
76815;BME280;65768;49.906;19.384;2023-03-01T00:36:36;99528.23;;;-4.68;93.12
76815;BME280;65768;49.906;19.384;2023-03-01T00:39:07;99525.71;;;-4.65;91.12
76815;BME280;65768;49.906;19.384;2023-03-01T00:41:38;99520.88;;;-4.73;91.14
76815;BME280;65768;49.906;19.384;2023-03-01T00:44:06;99517.93;;;-4.82;90.60
76815;BME280;65768;49.906;19.384;2023-03-01T00:46:34;99513.63;;;-4.84;89.73
76815;BME280;65768;49.906;19.384;2023-03-01T00:49:02;99510.64;;;-4.77;89.37
76815;BME280;65768;49.906;19.384;2023-03-01T00:51:32;99512.09;;;-4.83;89.75
76815;BME280;65768;49.906;19.384;2023-03-01T00:54:01;99510.70;;;-4.89;89.78
76815;BME280;65768;49.906;19.384;2023-03-01T00:56:30;99506.40;;;-4.88;89.99
76815;BME280;65768;49.906;19.384;2023-03-01T00:58:58;99502.60;;;-4.82;89.44
76815;BME280;65768;49.906;19.384;2023-03-01T01:01:28;99498.22;;;-4.80;88.26
76815;BME280;65768;49.906;19.384;2023-03-01T01:04:02;99500.11;;;-4.79;89.03
76815;BME280;65768;49.906;19.384;2023-03-01T01:06:37;99498.27;;;-4.75;88.69
76815;BME280;65768;49.906;19.384;2023-03-01T01:09:07;99492.86;;;-4.78;89.21
76815;BME280;65768;49.906;19.384;2023-03-01T01:11:35;99492.38;;;-4.82;89.66
76815;BME280;65768;49.906;19.384;2023-03-01T01:14:04;99497.47;;;-4.78;89.24
76815;BME280;65768;49.906;19.384;2023-03-01T01:16:32;99494.16;;;-4.75;88.87
76815;BME280;65768;49.906;19.384;2023-03-01T01:19:01;99494.84;;;-4.81;89.09
76815;BME280;65768;49.906;19.384;2023-03-01T01:21:30;99493.75;;;-4.84;89.20
76815;BME280;65768;49.906;19.384;2023-03-01T01:23:58;99490.41;;;-4.84;90.00
76815;BME280;65768;49.906;19.384;2023-03-01T01:26:28;99492.23;;;-4.78;90.30
76815;BME280;65768;49.906;19.384;2023-03-01T01:28:58;99492.81;;;-4.79;89.95
76815;BME280;65768;49.906;19.384;2023-03-01T01:31:26;99489.63;;;-4.87;89.51
76815;BME280;65768;49.906;19.384;2023-03-01T01:33:56;99486.66;;;-4.95;89.35
76815;BME280;65768;49.906;19.384;2023-03-01T01:36:24;99481.49;;;-5.01;89.38
76815;BME280;65768;49.906;19.384;2023-03-01T01:38:53;99481.37;;;-5.05;89.48
76815;BME280;65768;49.906;19.384;2023-03-01T01:41:21;99476.30;;;-5.01;89.58
76815;BME280;65768;49.906;19.384;2023-03-01T01:44:11;99469.09;;;-4.99;89.41
76815;BME280;65768;49.906;19.384;2023-03-01T01:46:45;99462.06;;;-5.04;89.76
76815;BME280;65768;49.906;19.384;2023-03-01T01:49:27;99464.36;;;-4.97;89.33
76815;BME280;65768;49.906;19.384;2023-03-01T01:54:50;99468.02;;;-4.81;89.66
76815;BME280;65768;49.906;19.384;2023-03-01T01:57:22;99465.66;;;-4.83;89.78
76815;BME280;65768;49.906;19.384;2023-03-01T01:59:55;99461.09;;;-4.91;90.13
76815;BME280;65768;49.906;19.384;2023-03-01T02:02:24;99461.83;;;-4.95;91.10
76815;BME280;65768;49.906;19.384;2023-03-01T02:05:03;99459.96;;;-5.03;91.43
76815;BME280;65768;49.906;19.384;2023-03-01T02:07:33;99453.70;;;-5.13;91.03
76815;BME280;65768;49.906;19.384;2023-03-01T02:10:01;99448.59;;;-5.21;90.68
76815;BME280;65768;49.906;19.384;2023-03-01T02:12:30;99448.22;;;-5.28;90.60
76815;BME280;65768;49.906;19.384;2023-03-01T02:14:58;99441.93;;;-5.30;89.05
76815;BME280;65768;49.906;19.384;2023-03-01T02:17:26;99441.85;;;-5.33;89.69
76815;BME280;65768;49.906;19.384;2023-03-01T02:22:46;99447.69;;;-5.37;92.49
76815;BME280;65768;49.906;19.384;2023-03-01T02:30:31;99440.52;;;-5.45;91.68
76815;BME280;65768;49.906;19.384;2023-03-01T02:33:03;99441.16;;;-5.46;92.37
76815;BME280;65768;49.906;19.384;2023-03-01T02:35:35;99441.23;;;-5.39;94.31
76815;BME280;65768;49.906;19.384;2023-03-01T02:38:07;99443.06;;;-5.41;94.01
76815;BME280;65768;49.906;19.384;2023-03-01T02:40:37;99441.30;;;-5.46;92.87
76815;BME280;65768;49.906;19.384;2023-03-01T02:43:09;99440.64;;;-5.52;92.48
76815;BME280;65768;49.906;19.384;2023-03-01T02:45:47;99443.14;;;-5.59;92.13
76815;BME280;65768;49.906;19.384;2023-03-01T02:48:16;99443.92;;;-5.66;92.14
76815;BME280;65768;49.906;19.384;2023-03-01T02:51:05;99444.16;;;-5.69;91.96
76815;BME280;65768;49.906;19.384;2023-03-01T02:53:45;99445.27;;;-5.68;91.92
76815;BME280;65768;49.906;19.384;2023-03-01T02:56:19;99445.31;;;-5.69;92.33
76815;BME280;65768;49.906;19.384;2023-03-01T02:58:48;99452.45;;;-5.70;92.66
76815;BME280;65768;49.906;19.384;2023-03-01T03:01:20;99449.08;;;-5.69;92.57
76815;BME280;65768;49.906;19.384;2023-03-01T03:03:48;99445.27;;;-5.66;92.99
76815;BME280;65768;49.906;19.384;2023-03-01T03:06:16;99444.32;;;-5.61;93.01
76815;BME280;65768;49.906;19.384;2023-03-01T03:08:44;99442.84;;;-5.54;92.81
76815;BME280;65768;49.906;19.384;2023-03-01T03:11:12;99442.66;;;-5.52;92.57
76815;BME280;65768;49.906;19.384;2023-03-01T03:13:40;99441.54;;;-5.51;92.60
76815;BME280;65768;49.906;19.384;2023-03-01T03:16:15;99438.27;;;-5.52;92.43
76815;BME280;65768;49.906;19.384;2023-03-01T03:18:43;99442.55;;;-5.57;91.80
76815;BME280;65768;49.906;19.384;2023-03-01T03:21:12;99447.38;;;-5.61;92.05
76815;BME280;65768;49.906;19.384;2023-03-01T03:23:40;99445.04;;;-5.63;92.16
76815;BME280;65768;49.906;19.384;2023-03-01T03:26:08;99444.81;;;-5.55;91.02
76815;BME280;65768;49.906;19.384;2023-03-01T03:28:36;99440.27;;;-5.48;91.07
76815;BME280;65768;49.906;19.384;2023-03-01T03:31:08;99439.11;;;-5.52;91.99
76815;BME280;65768;49.906;19.384;2023-03-01T03:33:36;99446.98;;;-5.51;93.14
76815;BME280;65768;49.906;19.384;2023-03-01T03:36:04;99447.48;;;-5.44;92.95
76815;BME280;65768;49.906;19.384;2023-03-01T03:38:33;99448.94;;;-5.38;92.41
76815;BME280;65768;49.906;19.384;2023-03-01T03:41:04;99446.88;;;-5.44;92.68
76815;BME280;65768;49.906;19.384;2023-03-01T03:43:35;99450.86;;;-5.50;92.52
76815;BME280;65768;49.906;19.384;2023-03-01T03:46:04;99450.63;;;-5.54;91.48
76815;BME280;65768;49.906;19.384;2023-03-01T03:48:39;99450.91;;;-5.59;92.09
76815;BME280;65768;49.906;19.384;2023-03-01T03:51:10;99451.55;;;-5.66;92.17
76815;BME280;65768;49.906;19.384;2023-03-01T03:53:39;99450.91;;;-5.67;92.48
76815;BME280;65768;49.906;19.384;2023-03-01T03:56:07;99444.23;;;-5.68;91.92
76815;BME280;65768;49.906;19.384;2023-03-01T03:58:35;99436.35;;;-5.61;91.13
76815;BME280;65768;49.906;19.384;2023-03-01T04:01:04;99431.05;;;-5.61;90.91
76815;BME280;65768;49.906;19.384;2023-03-01T04:03:33;99427.90;;;-5.52;90.09
76815;BME280;65768;49.906;19.384;2023-03-01T04:06:03;99430.60;;;-5.46;90.39
76815;BME280;65768;49.906;19.384;2023-03-01T04:08:32;99428.08;;;-5.42;90.00
76815;BME280;65768;49.906;19.384;2023-03-01T04:11:02;99417.91;;;-5.39;90.93
76815;BME280;65768;49.906;19.384;2023-03-01T04:13:49;99416.64;;;-5.41;90.75
76815;BME280;65768;49.906;19.384;2023-03-01T04:16:18;99414.26;;;-5.37;90.57
76815;BME280;65768;49.906;19.384;2023-03-01T04:18:47;99422.67;;;-5.37;91.29
76815;BME280;65768;49.906;19.384;2023-03-01T04:21:15;99432.27;;;-5.36;90.99
76815;BME280;65768;49.906;19.384;2023-03-01T04:23:43;99432.84;;;-5.35;91.94
76815;BME280;65768;49.906;19.384;2023-03-01T04:30:12;99438.84;;;-5.47;91.69
76815;BME280;65768;49.906;19.384;2023-03-01T04:32:40;99438.10;;;-5.52;91.74
76815;BME280;65768;49.906;19.384;2023-03-01T04:35:09;99442.10;;;-5.51;91.79
76815;BME280;65768;49.906;19.384;2023-03-01T04:37:37;99449.59;;;-5.53;93.80
76815;BME280;65768;49.906;19.384;2023-03-01T04:40:06;99447.70;;;-5.59;93.33
76815;BME280;65768;49.906;19.384;2023-03-01T04:42:43;99449.39;;;-5.65;93.26
76815;BME280;65768;49.906;19.384;2023-03-01T04:45:11;99448.02;;;-5.71;92.67
76815;BME280;65768;49.906;19.384;2023-03-01T04:47:42;99451.34;;;-5.76;92.23
76815;BME280;65768;49.906;19.384;2023-03-01T04:50:16;99448.44;;;-5.81;90.95
76815;BME280;65768;49.906;19.384;2023-03-01T04:52:44;99444.86;;;-5.85;91.17
76815;BME280;65768;49.906;19.384;2023-03-01T04:55:13;99444.20;;;-5.85;91.30
76815;BME280;65768;49.906;19.384;2023-03-01T04:57:41;99440.82;;;-5.81;90.83
76815;BME280;65768;49.906;19.384;2023-03-01T05:00:12;99445.05;;;-5.77;90.98
76815;BME280;65768;49.906;19.384;2023-03-01T05:02:52;99446.14;;;-5.82;91.82
76815;BME280;65768;49.906;19.384;2023-03-01T05:05:37;99448.00;;;-5.84;91.99
76815;BME280;65768;49.906;19.384;2023-03-01T05:08:07;99443.39;;;-5.86;91.57
76815;BME280;65768;49.906;19.384;2023-03-01T05:10:36;99432.77;;;-5.79;90.71
76815;BME280;65768;49.906;19.384;2023-03-01T05:13:05;99430.84;;;-5.76;91.10
76815;BME280;65768;49.906;19.384;2023-03-01T05:15:34;99426.91;;;-5.78;91.33
76815;BME280;65768;49.906;19.384;2023-03-01T05:18:04;99426.48;;;-5.79;91.55
76815;BME280;65768;49.906;19.384;2023-03-01T05:20:34;99430.16;;;-5.83;91.92
76815;BME280;65768;49.906;19.384;2023-03-01T05:23:04;99424.95;;;-5.81;91.04
76815;BME280;65768;49.906;19.384;2023-03-01T05:25:34;99418.36;;;-5.81;92.03
76815;BME280;65768;49.906;19.384;2023-03-01T05:28:02;99421.77;;;-5.85;91.17
76815;BME280;65768;49.906;19.384;2023-03-01T05:30:34;99423.79;;;-5.83;91.90
76815;BME280;65768;49.906;19.384;2023-03-01T05:33:02;99427.86;;;-5.81;93.17
76815;BME280;65768;49.906;19.384;2023-03-01T05:35:32;99421.39;;;-5.77;94.14
76815;BME280;65768;49.906;19.384;2023-03-01T05:38:01;99419.73;;;-5.77;93.78
76815;BME280;65768;49.906;19.384;2023-03-01T05:40:29;99423.36;;;-5.80;92.74
76815;BME280;65768;49.906;19.384;2023-03-01T05:42:57;99425.72;;;-5.85;92.20
76815;BME280;65768;49.906;19.384;2023-03-01T05:45:26;99426.18;;;-5.85;92.45
76815;BME280;65768;49.906;19.384;2023-03-01T05:47:57;99424.71;;;-5.83;91.91
76815;BME280;65768;49.906;19.384;2023-03-01T05:50:31;99424.45;;;-5.81;91.60
76815;BME280;65768;49.906;19.384;2023-03-01T05:53:04;99427.93;;;-5.78;91.87
76815;BME280;65768;49.906;19.384;2023-03-01T05:55:36;99429.27;;;-5.72;91.22
76815;BME280;65768;49.906;19.384;2023-03-01T05:58:07;99422.23;;;-5.67;90.68
76815;BME280;65768;49.906;19.384;2023-03-01T06:00:35;99430.27;;;-5.68;91.28
76815;BME280;65768;49.906;19.384;2023-03-01T06:03:03;99421.88;;;-5.69;91.26
76815;BME280;65768;49.906;19.384;2023-03-01T06:05:31;99414.17;;;-5.64;91.95
76815;BME280;65768;49.906;19.384;2023-03-01T06:08:00;99407.91;;;-5.60;91.73
76815;BME280;65768;49.906;19.384;2023-03-01T06:10:29;99409.88;;;-5.54;91.62
76815;BME280;65768;49.906;19.384;2023-03-01T06:12:57;99411.50;;;-5.47;91.87
76815;BME280;65768;49.906;19.384;2023-03-01T06:15:25;99410.02;;;-5.34;92.52
76815;BME280;65768;49.906;19.384;2023-03-01T06:17:54;99407.16;;;-5.27;92.04
76815;BME280;65768;49.906;19.384;2023-03-01T06:20:26;99411.48;;;-5.29;91.36
76815;BME280;65768;49.906;19.384;2023-03-01T06:22:55;99423.41;;;-5.20;91.81
76815;BME280;65768;49.906;19.384;2023-03-01T06:25:25;99423.09;;;-5.05;93.06
76815;BME280;65768;49.906;19.384;2023-03-01T06:27:54;99420.48;;;-4.95;92.55
76815;BME280;65768;49.906;19.384;2023-03-01T06:30:24;99429.69;;;-4.86;92.30
76815;BME280;65768;49.906;19.384;2023-03-01T06:32:53;99431.18;;;-4.74;91.44
76815;BME280;65768;49.906;19.384;2023-03-01T06:35:29;99430.05;;;-4.64;91.52
76815;BME280;65768;49.906;19.384;2023-03-01T06:38:00;99430.70;;;-4.54;92.94
76815;BME280;65768;49.906;19.384;2023-03-01T06:40:29;99434.42;;;-4.44;93.47
76815;BME280;65768;49.906;19.384;2023-03-01T06:42:58;99433.52;;;-4.31;93.30
76815;BME280;65768;49.906;19.384;2023-03-01T06:45:27;99435.96;;;-4.22;92.65
76815;BME280;65768;49.906;19.384;2023-03-01T06:48:06;99439.21;;;-4.15;92.49
76815;BME280;65768;49.906;19.384;2023-03-01T06:50:35;99438.29;;;-4.05;92.17
76815;BME280;65768;49.906;19.384;2023-03-01T06:53:04;99436.13;;;-3.93;91.73
76815;BME280;65768;49.906;19.384;2023-03-01T06:55:32;99439.95;;;-3.81;92.15
76815;BME280;65768;49.906;19.384;2023-03-01T06:58:02;99442.92;;;-3.71;91.63
76815;BME280;65768;49.906;19.384;2023-03-01T07:00:31;99442.85;;;-3.63;90.89
76815;BME280;65768;49.906;19.384;2023-03-01T07:03:00;99448.90;;;-3.57;90.31
76815;BME280;65768;49.906;19.384;2023-03-01T07:05:30;99444.47;;;-3.46;91.53
76815;BME280;65768;49.906;19.384;2023-03-01T07:07:58;99441.15;;;-3.38;91.00
76815;BME280;65768;49.906;19.384;2023-03-01T07:10:26;99439.45;;;-3.31;90.59
76815;BME280;65768;49.906;19.384;2023-03-01T07:12:58;99435.30;;;-3.25;89.66
76815;BME280;65768;49.906;19.384;2023-03-01T07:15:27;99433.65;;;-3.15;88.31
76815;BME280;65768;49.906;19.384;2023-03-01T07:17:56;99435.02;;;-3.03;87.97
76815;BME280;65768;49.906;19.384;2023-03-01T07:20:24;99431.88;;;-2.92;87.67
76815;BME280;65768;49.906;19.384;2023-03-01T07:22:55;99429.11;;;-2.81;87.66
76815;BME280;65768;49.906;19.384;2023-03-01T07:25:26;99426.20;;;-2.67;87.27
76815;BME280;65768;49.906;19.384;2023-03-01T07:27:54;99421.92;;;-2.55;86.89
76815;BME280;65768;49.906;19.384;2023-03-01T07:30:22;99420.89;;;-2.41;87.05
76815;BME280;65768;49.906;19.384;2023-03-01T07:32:54;99415.84;;;-2.30;86.28
76815;BME280;65768;49.906;19.384;2023-03-01T07:35:25;99414.13;;;-2.25;85.65
76815;BME280;65768;49.906;19.384;2023-03-01T07:37:53;99416.89;;;-2.18;85.75
76815;BME280;65768;49.906;19.384;2023-03-01T07:40:21;99411.09;;;-2.10;85.48
76815;BME280;65768;49.906;19.384;2023-03-01T07:42:49;99402.83;;;-2.01;85.52
76815;BME280;65768;49.906;19.384;2023-03-01T07:45:22;99398.77;;;-1.93;84.98
76815;BME280;65768;49.906;19.384;2023-03-01T07:47:51;99389.63;;;-1.87;84.78
76815;BME280;65768;49.906;19.384;2023-03-01T07:50:20;99383.81;;;-1.79;84.00
76815;BME280;65768;49.906;19.384;2023-03-01T07:52:49;99385.15;;;-1.69;83.79
76815;BME280;65768;49.906;19.384;2023-03-01T07:55:17;99383.28;;;-1.54;84.01
76815;BME280;65768;49.906;19.384;2023-03-01T07:57:45;99381.88;;;-1.44;84.52
76815;BME280;65768;49.906;19.384;2023-03-01T08:00:13;99375.92;;;-1.31;84.07
76815;BME280;65768;49.906;19.384;2023-03-01T08:02:41;99372.59;;;-1.21;83.19
76815;BME280;65768;49.906;19.384;2023-03-01T08:05:10;99368.33;;;-1.10;82.30
76815;BME280;65768;49.906;19.384;2023-03-01T08:07:38;99360.94;;;-1.01;82.16
76815;BME280;65768;49.906;19.384;2023-03-01T08:10:07;99360.79;;;-0.87;82.25
76815;BME280;65768;49.906;19.384;2023-03-01T08:12:35;99359.48;;;-0.72;82.18
76815;BME280;65768;49.906;19.384;2023-03-01T08:15:03;99366.33;;;-0.58;81.73
76815;BME280;65768;49.906;19.384;2023-03-01T08:17:31;99364.05;;;-0.46;81.37
76815;BME280;65768;49.906;19.384;2023-03-01T08:19:59;99358.34;;;-0.30;81.35
76815;BME280;65768;49.906;19.384;2023-03-01T08:22:28;99360.86;;;-0.11;81.94
76815;BME280;65768;49.906;19.384;2023-03-01T08:24:56;99355.83;;;0.02;80.60
76815;BME280;65768;49.906;19.384;2023-03-01T08:27:24;99358.20;;;0.16;79.70
76815;BME280;65768;49.906;19.384;2023-03-01T08:29:52;99360.11;;;0.25;79.89
76815;BME280;65768;49.906;19.384;2023-03-01T08:32:20;99354.23;;;0.30;78.33
76815;BME280;65768;49.906;19.384;2023-03-01T08:34:48;99349.66;;;0.43;78.72
76815;BME280;65768;49.906;19.384;2023-03-01T08:37:16;99349.48;;;0.57;78.48
76815;BME280;65768;49.906;19.384;2023-03-01T08:39:44;99352.86;;;0.68;76.17
76815;BME280;65768;49.906;19.384;2023-03-01T08:42:12;99350.01;;;0.76;76.13
76815;BME280;65768;49.906;19.384;2023-03-01T08:44:40;99349.23;;;0.83;75.12
76815;BME280;65768;49.906;19.384;2023-03-01T08:47:08;99346.64;;;0.83;75.39
76815;BME280;65768;49.906;19.384;2023-03-01T08:49:36;99344.98;;;0.99;75.38
76815;BME280;65768;49.906;19.384;2023-03-01T08:52:04;99346.68;;;1.02;74.21
76815;BME280;65768;49.906;19.384;2023-03-01T08:54:32;99346.90;;;1.11;73.84
76815;BME280;65768;49.906;19.384;2023-03-01T08:57:03;99344.47;;;1.08;74.15
76815;BME280;65768;49.906;19.384;2023-03-01T08:59:31;99341.12;;;1.00;73.89
76815;BME280;65768;49.906;19.384;2023-03-01T09:02:08;99348.34;;;0.97;74.25
76815;BME280;65768;49.906;19.384;2023-03-01T09:04:39;99350.01;;;1.03;73.85
76815;BME280;65768;49.906;19.384;2023-03-01T09:07:08;99350.04;;;1.00;73.97
76815;BME280;65768;49.906;19.384;2023-03-01T09:09:37;99348.73;;;1.10;75.19
76815;BME280;65768;49.906;19.384;2023-03-01T09:12:05;99342.36;;;1.07;73.73
76815;BME280;65768;49.906;19.384;2023-03-01T09:14:34;99340.95;;;1.22;73.44
76815;BME280;65768;49.906;19.384;2023-03-01T09:17:02;99339.69;;;1.49;72.76
76815;BME280;65768;49.906;19.384;2023-03-01T09:19:30;99339.95;;;1.54;71.86
76815;BME280;65768;49.906;19.384;2023-03-01T09:21:58;99342.06;;;1.55;72.00
76815;BME280;65768;49.906;19.384;2023-03-01T09:24:26;99331.89;;;1.54;70.82
76815;BME280;65768;49.906;19.384;2023-03-01T09:26:56;99336.74;;;1.52;69.54
76815;BME280;65768;49.906;19.384;2023-03-01T09:29:24;99331.88;;;1.57;69.79
76815;BME280;65768;49.906;19.384;2023-03-01T09:31:53;99332.92;;;1.67;69.35
76815;BME280;65768;49.906;19.384;2023-03-01T09:34:23;99335.21;;;1.78;69.02
76815;BME280;65768;49.906;19.384;2023-03-01T09:36:51;99333.40;;;1.79;69.13
76815;BME280;65768;49.906;19.384;2023-03-01T09:39:20;99333.52;;;1.79;68.20
76815;BME280;65768;49.906;19.384;2023-03-01T09:42:03;99328.90;;;1.72;66.85
76815;BME280;65768;49.906;19.384;2023-03-01T09:47:28;99335.91;;;1.81;67.72
76815;BME280;65768;49.906;19.384;2023-03-01T09:49:58;99337.13;;;1.91;68.46
76815;BME280;65768;49.906;19.384;2023-03-01T09:52:40;99338.69;;;1.98;66.89
76815;BME280;65768;49.906;19.384;2023-03-01T09:55:14;99332.73;;;2.23;68.50
76815;BME280;65768;49.906;19.384;2023-03-01T09:57:50;99334.12;;;2.33;67.82
76815;BME280;65768;49.906;19.384;2023-03-01T10:03:02;99336.06;;;2.20;67.81
76815;BME280;65768;49.906;19.384;2023-03-01T10:05:41;99333.76;;;2.23;66.51
76815;BME280;65768;49.906;19.384;2023-03-01T10:11:24;99334.32;;;2.30;67.54
76815;BME280;65768;49.906;19.384;2023-03-01T10:14:05;99330.95;;;2.35;66.64
76815;BME280;65768;49.906;19.384;2023-03-01T10:16:46;99326.77;;;2.41;66.15
76815;BME280;65768;49.906;19.384;2023-03-01T10:19:40;99322.78;;;2.47;65.96
76815;BME280;65768;49.906;19.384;2023-03-01T10:22:18;99321.73;;;2.60;65.74
76815;BME280;65768;49.906;19.384;2023-03-01T10:24:50;99317.40;;;2.74;66.65
76815;BME280;65768;49.906;19.384;2023-03-01T10:27:26;99317.31;;;2.79;65.12
76815;BME280;65768;49.906;19.384;2023-03-01T10:30:13;99316.55;;;2.74;63.37
76815;BME280;65768;49.906;19.384;2023-03-01T10:32:44;99312.25;;;2.67;63.37
76815;BME280;65768;49.906;19.384;2023-03-01T10:35:24;99310.55;;;2.68;63.08
76815;BME280;65768;49.906;19.384;2023-03-01T10:40:32;99311.66;;;2.90;62.15
76815;BME280;65768;49.906;19.384;2023-03-01T10:43:04;99311.13;;;2.93;62.15
76815;BME280;65768;49.906;19.384;2023-03-01T10:45:34;99304.64;;;3.02;61.91
76815;BME280;65768;49.906;19.384;2023-03-01T10:48:16;99302.19;;;3.08;62.25
76815;BME280;65768;49.906;19.384;2023-03-01T10:50:48;99302.73;;;3.20;62.61
76815;BME280;65768;49.906;19.384;2023-03-01T10:53:28;99301.36;;;3.20;62.60
76815;BME280;65768;49.906;19.384;2023-03-01T10:56:03;99301.66;;;3.16;59.95
76815;BME280;65768;49.906;19.384;2023-03-01T10:58:33;99295.20;;;3.25;61.35
76815;BME280;65768;49.906;19.384;2023-03-01T11:03:42;99294.11;;;3.20;61.19
76815;BME280;65768;49.906;19.384;2023-03-01T11:08:43;99281.59;;;3.28;61.00
76815;BME280;65768;49.906;19.384;2023-03-01T11:14:18;99280.85;;;3.46;60.67
76815;BME280;65768;49.906;19.384;2023-03-01T11:16:47;99277.20;;;3.64;60.58
76815;BME280;65768;49.906;19.384;2023-03-01T11:19:18;99276.62;;;3.55;60.65
76815;BME280;65768;49.906;19.384;2023-03-01T11:24:30;99271.64;;;3.60;59.31
76815;BME280;65768;49.906;19.384;2023-03-01T11:27:03;99270.48;;;3.65;57.63
76815;BME280;65768;49.906;19.384;2023-03-01T11:32:07;99264.41;;;3.83;58.09
76815;BME280;65768;49.906;19.384;2023-03-01T11:37:32;99259.70;;;3.78;57.90
76815;BME280;65768;49.906;19.384;2023-03-01T11:40:10;99254.02;;;3.75;56.44
76815;BME280;65768;49.906;19.384;2023-03-01T11:42:52;99247.92;;;3.77;55.78
76815;BME280;65768;49.906;19.384;2023-03-01T11:45:23;99249.90;;;3.71;56.02
76815;BME280;65768;49.906;19.384;2023-03-01T11:50:41;99249.34;;;3.89;54.00
76815;BME280;65768;49.906;19.384;2023-03-01T11:58:42;99238.61;;;4.09;53.50
76815;BME280;65768;49.906;19.384;2023-03-01T12:01:31;99234.45;;;4.13;53.50
76815;BME280;65768;49.906;19.384;2023-03-01T12:29:02;99216.21;;;4.26;53.22
76815;BME280;65768;49.906;19.384;2023-03-01T12:31:55;99208.21;;;4.33;54.22
76815;BME280;65768;49.906;19.384;2023-03-01T12:34:42;99204.15;;;4.44;52.54
76815;BME280;65768;49.906;19.384;2023-03-01T12:37:25;99194.27;;;4.38;51.76
76815;BME280;65768;49.906;19.384;2023-03-01T12:40:15;99190.52;;;4.44;53.36
76815;BME280;65768;49.906;19.384;2023-03-01T12:50:51;99179.83;;;4.61;48.06
76815;BME280;65768;49.906;19.384;2023-03-01T12:53:26;99180.73;;;4.62;47.90
76815;BME280;65768;49.906;19.384;2023-03-01T12:56:08;99180.75;;;4.76;49.20
76815;BME280;65768;49.906;19.384;2023-03-01T13:01:36;99174.57;;;4.91;50.15
76815;BME280;65768;49.906;19.384;2023-03-01T13:17:58;99176.38;;;5.06;49.39
76815;BME280;65768;49.906;19.384;2023-03-01T13:23:27;99168.60;;;5.34;50.79
76815;BME280;65768;49.906;19.384;2023-03-01T13:26:09;99166.48;;;5.43;50.63
76815;BME280;65768;49.906;19.384;2023-03-01T13:33:48;99151.47;;;5.58;48.15
76815;BME280;65768;49.906;19.384;2023-03-01T13:39:03;99149.80;;;5.50;48.65
76815;BME280;65768;49.906;19.384;2023-03-01T13:49:49;99138.06;;;5.75;47.19
76815;BME280;65768;49.906;19.384;2023-03-01T13:54:57;99131.88;;;5.96;48.58
76815;BME280;65768;49.906;19.384;2023-03-01T13:57:35;99131.48;;;5.91;45.99
76815;BME280;65768;49.906;19.384;2023-03-01T14:00:24;99131.62;;;5.80;46.02
76815;BME280;65768;49.906;19.384;2023-03-01T14:03:14;99134.02;;;5.83;46.33
76815;BME280;65768;49.906;19.384;2023-03-01T14:08:29;99133.33;;;5.88;46.49
76815;BME280;65768;49.906;19.384;2023-03-01T14:14:23;99125.70;;;5.93;44.00
76815;BME280;65768;49.906;19.384;2023-03-01T14:19:29;99108.00;;;8.94;39.49
76815;BME280;65768;49.906;19.384;2023-03-01T14:22:21;99095.10;;;11.14;35.59
76815;BME280;65768;49.906;19.384;2023-03-01T14:24:54;99088.42;;;12.11;32.41
76815;BME280;65768;49.906;19.384;2023-03-01T14:27:26;99087.00;;;13.20;31.12
76815;BME280;65768;49.906;19.384;2023-03-01T14:30:00;99083.50;;;13.70;28.81
76815;BME280;65768;49.906;19.384;2023-03-01T14:32:31;99081.61;;;13.94;29.10
76815;BME280;65768;49.906;19.384;2023-03-01T14:35:00;99075.42;;;14.77;28.89
76815;BME280;65768;49.906;19.384;2023-03-01T14:37:32;99070.41;;;15.46;29.22
76815;BME280;65768;49.906;19.384;2023-03-01T14:40:03;99076.09;;;15.96;27.18
76815;BME280;65768;49.906;19.384;2023-03-01T14:42:34;99071.05;;;16.12;25.61
76815;BME280;65768;49.906;19.384;2023-03-01T14:45:06;99074.11;;;16.44;26.13
76815;BME280;65768;49.906;19.384;2023-03-01T14:47:36;99077.32;;;16.37;25.97
76815;BME280;65768;49.906;19.384;2023-03-01T14:50:29;99076.73;;;16.63;27.32
76815;BME280;65768;49.906;19.384;2023-03-01T14:53:01;99074.88;;;16.37;26.19
76815;BME280;65768;49.906;19.384;2023-03-01T14:57:59;99080.70;;;13.77;26.26
76815;BME280;65768;49.906;19.384;2023-03-01T15:00:30;99082.41;;;12.22;29.24
76815;BME280;65768;49.906;19.384;2023-03-01T15:03:06;99078.57;;;11.82;30.98
76815;BME280;65768;49.906;19.384;2023-03-01T15:05:42;99078.42;;;11.85;30.52
76815;BME280;65768;49.906;19.384;2023-03-01T15:08:19;99076.13;;;11.66;30.86
76815;BME280;65768;49.906;19.384;2023-03-01T15:11:15;99075.09;;;11.33;31.75
76815;BME280;65768;49.906;19.384;2023-03-01T15:13:45;99075.44;;;12.04;31.39
76815;BME280;65768;49.906;19.384;2023-03-01T15:16:23;99076.69;;;12.28;30.78
76815;BME280;65768;49.906;19.384;2023-03-01T15:18:54;99081.02;;;11.51;32.11
76815;BME280;65768;49.906;19.384;2023-03-01T15:21:33;99087.98;;;10.65;33.11
76815;BME280;65768;49.906;19.384;2023-03-01T15:24:13;99082.67;;;9.82;35.00
76815;BME280;65768;49.906;19.384;2023-03-01T15:26:55;99082.52;;;9.83;35.35
76815;BME280;65768;49.906;19.384;2023-03-01T15:29:30;99073.70;;;10.09;32.56